sensor_id;sensor_type;location;lat;lon;timestamp;P1;durP1;ratioP1;P2;durP2;ratioP2
5060;SDS011;2549;52.128;21.068;2023-12-29T00:00:56;9.82;;;5.28;;
5060;SDS011;2549;52.128;21.068;2023-12-29T00:03:23;7.47;;;5.38;;
5060;SDS011;2549;52.128;21.068;2023-12-29T00:05:50;8.27;;;5.55;;
5060;SDS011;2549;52.128;21.068;2023-12-29T00:08:17;10.15;;;5.18;;
5060;SDS011;2549;52.128;21.068;2023-12-29T00:10:44;9.73;;;4.90;;
5060;SDS011;2549;52.128;21.068;2023-12-29T00:13:11;9.55;;;5.45;;
5060;SDS011;2549;52.128;21.068;2023-12-29T00:15:38;10.77;;;5.93;;
5060;SDS011;2549;52.128;21.068;2023-12-29T00:18:05;9.20;;;5.57;;
5060;SDS011;2549;52.128;21.068;2023-12-29T00:20:32;7.47;;;5.22;;
5060;SDS011;2549;52.128;21.068;2023-12-29T00:23:07;10.38;;;5.18;;
5060;SDS011;2549;52.128;21.068;2023-12-29T00:25:37;9.60;;;5.05;;
5060;SDS011;2549;52.128;21.068;2023-12-29T00:28:05;11.38;;;5.40;;
5060;SDS011;2549;52.128;21.068;2023-12-29T00:30:37;11.35;;;5.97;;
5060;SDS011;2549;52.128;21.068;2023-12-29T00:33:22;8.10;;;5.35;;
5060;SDS011;2549;52.128;21.068;2023-12-29T00:35:50;11.75;;;6.63;;
5060;SDS011;2549;52.128;21.068;2023-12-29T00:38:16;10.55;;;6.00;;
5060;SDS011;2549;52.128;21.068;2023-12-29T00:40:43;12.45;;;6.15;;
5060;SDS011;2549;52.128;21.068;2023-12-29T00:43:10;10.65;;;5.60;;
5060;SDS011;2549;52.128;21.068;2023-12-29T00:45:38;9.90;;;6.07;;
5060;SDS011;2549;52.128;21.068;2023-12-29T00:48:05;12.02;;;6.35;;
5060;SDS011;2549;52.128;21.068;2023-12-29T00:50:32;10.25;;;6.57;;
5060;SDS011;2549;52.128;21.068;2023-12-29T00:53:00;14.98;;;6.72;;
5060;SDS011;2549;52.128;21.068;2023-12-29T00:55:27;10.35;;;6.03;;
5060;SDS011;2549;52.128;21.068;2023-12-29T00:57:54;12.50;;;6.80;;
5060;SDS011;2549;52.128;21.068;2023-12-29T01:00:21;17.02;;;7.43;;
5060;SDS011;2549;52.128;21.068;2023-12-29T01:02:48;10.73;;;6.35;;
5060;SDS011;2549;52.128;21.068;2023-12-29T01:05:17;12.25;;;6.18;;
5060;SDS011;2549;52.128;21.068;2023-12-29T01:07:44;15.10;;;7.60;;
5060;SDS011;2549;52.128;21.068;2023-12-29T01:10:11;11.18;;;6.95;;
5060;SDS011;2549;52.128;21.068;2023-12-29T01:12:38;14.80;;;7.25;;
5060;SDS011;2549;52.128;21.068;2023-12-29T01:15:05;12.52;;;6.20;;
5060;SDS011;2549;52.128;21.068;2023-12-29T01:17:32;15.48;;;6.75;;
5060;SDS011;2549;52.128;21.068;2023-12-29T01:20:00;16.02;;;7.45;;
5060;SDS011;2549;52.128;21.068;2023-12-29T01:22:28;17.38;;;8.15;;
5060;SDS011;2549;52.128;21.068;2023-12-29T01:24:55;14.30;;;6.95;;
5060;SDS011;2549;52.128;21.068;2023-12-29T01:27:22;18.83;;;7.68;;
5060;SDS011;2549;52.128;21.068;2023-12-29T01:29:49;15.73;;;7.53;;
5060;SDS011;2549;52.128;21.068;2023-12-29T01:32:16;12.98;;;7.10;;
5060;SDS011;2549;52.128;21.068;2023-12-29T01:34:42;12.85;;;6.32;;
5060;SDS011;2549;52.128;21.068;2023-12-29T01:37:10;13.18;;;7.13;;
5060;SDS011;2549;52.128;21.068;2023-12-29T01:39:37;12.02;;;7.10;;
5060;SDS011;2549;52.128;21.068;2023-12-29T01:42:04;16.38;;;7.85;;
5060;SDS011;2549;52.128;21.068;2023-12-29T01:44:31;13.68;;;7.65;;
5060;SDS011;2549;52.128;21.068;2023-12-29T01:47:01;14.88;;;7.20;;
5060;SDS011;2549;52.128;21.068;2023-12-29T01:49:29;12.15;;;7.13;;
5060;SDS011;2549;52.128;21.068;2023-12-29T01:51:59;13.57;;;6.95;;
5060;SDS011;2549;52.128;21.068;2023-12-29T01:54:27;17.98;;;7.50;;
5060;SDS011;2549;52.128;21.068;2023-12-29T01:57:02;9.50;;;5.88;;
5060;SDS011;2549;52.128;21.068;2023-12-29T01:59:29;20.10;;;7.60;;
5060;SDS011;2549;52.128;21.068;2023-12-29T02:01:57;13.18;;;7.93;;
5060;SDS011;2549;52.128;21.068;2023-12-29T02:04:25;11.70;;;6.85;;
5060;SDS011;2549;52.128;21.068;2023-12-29T02:06:53;14.13;;;7.50;;
5060;SDS011;2549;52.128;21.068;2023-12-29T02:09:21;21.58;;;7.80;;
5060;SDS011;2549;52.128;21.068;2023-12-29T02:11:48;11.15;;;6.22;;
5060;SDS011;2549;52.128;21.068;2023-12-29T02:14:16;15.48;;;7.60;;
5060;SDS011;2549;52.128;21.068;2023-12-29T02:19:47;13.68;;;6.80;;
5060;SDS011;2549;52.128;21.068;2023-12-29T02:22:16;12.73;;;6.75;;
5060;SDS011;2549;52.128;21.068;2023-12-29T02:24:44;15.80;;;7.78;;
5060;SDS011;2549;52.128;21.068;2023-12-29T02:27:19;15.55;;;7.53;;
5060;SDS011;2549;52.128;21.068;2023-12-29T02:32:29;11.57;;;6.82;;
5060;SDS011;2549;52.128;21.068;2023-12-29T02:34:56;16.77;;;8.48;;
5060;SDS011;2549;52.128;21.068;2023-12-29T02:37:26;13.80;;;7.28;;
5060;SDS011;2549;52.128;21.068;2023-12-29T02:39:54;15.15;;;8.30;;
5060;SDS011;2549;52.128;21.068;2023-12-29T02:42:22;19.45;;;8.70;;
5060;SDS011;2549;52.128;21.068;2023-12-29T02:44:49;17.08;;;7.50;;
5060;SDS011;2549;52.128;21.068;2023-12-29T02:47:16;12.85;;;7.90;;
5060;SDS011;2549;52.128;21.068;2023-12-29T02:49:43;14.75;;;7.85;;
5060;SDS011;2549;52.128;21.068;2023-12-29T02:52:10;13.98;;;7.53;;
5060;SDS011;2549;52.128;21.068;2023-12-29T02:54:37;16.23;;;8.48;;
5060;SDS011;2549;52.128;21.068;2023-12-29T02:57:04;15.40;;;7.15;;
5060;SDS011;2549;52.128;21.068;2023-12-29T02:59:31;14.20;;;8.20;;
5060;SDS011;2549;52.128;21.068;2023-12-29T03:01:58;13.95;;;7.32;;
5060;SDS011;2549;52.128;21.068;2023-12-29T03:04:25;12.07;;;7.55;;
5060;SDS011;2549;52.128;21.068;2023-12-29T03:06:52;19.08;;;7.75;;
5060;SDS011;2549;52.128;21.068;2023-12-29T03:09:19;16.58;;;8.18;;
5060;SDS011;2549;52.128;21.068;2023-12-29T03:11:46;16.50;;;8.52;;
5060;SDS011;2549;52.128;21.068;2023-12-29T03:14:14;19.00;;;7.70;;
5060;SDS011;2549;52.128;21.068;2023-12-29T03:16:41;12.93;;;7.25;;
5060;SDS011;2549;52.128;21.068;2023-12-29T03:19:08;13.35;;;7.43;;
5060;SDS011;2549;52.128;21.068;2023-12-29T03:21:35;13.10;;;7.65;;
5060;SDS011;2549;52.128;21.068;2023-12-29T03:24:02;18.65;;;8.25;;
5060;SDS011;2549;52.128;21.068;2023-12-29T03:26:29;16.90;;;8.52;;
5060;SDS011;2549;52.128;21.068;2023-12-29T03:28:56;15.30;;;8.85;;
5060;SDS011;2549;52.128;21.068;2023-12-29T03:31:23;17.67;;;8.27;;
5060;SDS011;2549;52.128;21.068;2023-12-29T03:33:50;20.92;;;9.68;;
5060;SDS011;2549;52.128;21.068;2023-12-29T03:36:17;15.27;;;7.80;;
5060;SDS011;2549;52.128;21.068;2023-12-29T03:38:43;15.30;;;8.70;;
5060;SDS011;2549;52.128;21.068;2023-12-29T03:41:10;14.20;;;8.73;;
5060;SDS011;2549;52.128;21.068;2023-12-29T03:43:37;16.80;;;8.07;;
5060;SDS011;2549;52.128;21.068;2023-12-29T03:46:14;19.48;;;8.10;;
5060;SDS011;2549;52.128;21.068;2023-12-29T03:48:45;16.02;;;8.50;;
5060;SDS011;2549;52.128;21.068;2023-12-29T03:51:13;15.88;;;7.78;;
5060;SDS011;2549;52.128;21.068;2023-12-29T03:53:40;21.13;;;8.90;;
5060;SDS011;2549;52.128;21.068;2023-12-29T03:56:08;11.52;;;7.55;;
5060;SDS011;2549;52.128;21.068;2023-12-29T03:58:35;19.58;;;8.50;;
5060;SDS011;2549;52.128;21.068;2023-12-29T04:01:02;21.70;;;9.38;;
5060;SDS011;2549;52.128;21.068;2023-12-29T04:03:55;19.23;;;9.27;;
5060;SDS011;2549;52.128;21.068;2023-12-29T04:06:22;16.88;;;8.00;;
5060;SDS011;2549;52.128;21.068;2023-12-29T04:08:49;17.65;;;8.60;;
5060;SDS011;2549;52.128;21.068;2023-12-29T04:11:16;15.32;;;8.38;;
5060;SDS011;2549;52.128;21.068;2023-12-29T04:13:43;14.77;;;9.02;;
5060;SDS011;2549;52.128;21.068;2023-12-29T04:16:10;17.75;;;8.35;;
5060;SDS011;2549;52.128;21.068;2023-12-29T04:18:37;15.63;;;8.02;;
5060;SDS011;2549;52.128;21.068;2023-12-29T04:21:04;18.58;;;9.70;;
5060;SDS011;2549;52.128;21.068;2023-12-29T04:23:31;13.75;;;8.20;;
5060;SDS011;2549;52.128;21.068;2023-12-29T04:25:57;21.15;;;9.10;;
5060;SDS011;2549;52.128;21.068;2023-12-29T04:28:24;16.73;;;9.60;;
5060;SDS011;2549;52.128;21.068;2023-12-29T04:30:51;16.27;;;9.30;;
5060;SDS011;2549;52.128;21.068;2023-12-29T04:33:18;21.02;;;9.50;;
5060;SDS011;2549;52.128;21.068;2023-12-29T04:35:45;17.73;;;8.60;;
5060;SDS011;2549;52.128;21.068;2023-12-29T04:38:11;17.13;;;8.57;;
5060;SDS011;2549;52.128;21.068;2023-12-29T04:40:38;15.27;;;8.63;;
5060;SDS011;2549;52.128;21.068;2023-12-29T04:43:05;14.05;;;7.90;;
5060;SDS011;2549;52.128;21.068;2023-12-29T04:45:33;19.88;;;8.32;;
5060;SDS011;2549;52.128;21.068;2023-12-29T04:48:00;18.17;;;8.57;;
5060;SDS011;2549;52.128;21.068;2023-12-29T04:50:27;16.48;;;9.35;;
5060;SDS011;2549;52.128;21.068;2023-12-29T04:52:54;14.40;;;9.00;;
5060;SDS011;2549;52.128;21.068;2023-12-29T04:55:21;18.67;;;9.00;;
5060;SDS011;2549;52.128;21.068;2023-12-29T04:57:48;15.13;;;8.38;;
5060;SDS011;2549;52.128;21.068;2023-12-29T05:00:15;19.73;;;9.30;;
5060;SDS011;2549;52.128;21.068;2023-12-29T05:02:42;17.75;;;8.80;;
5060;SDS011;2549;52.128;21.068;2023-12-29T05:05:09;16.05;;;8.93;;
5060;SDS011;2549;52.128;21.068;2023-12-29T05:07:36;14.48;;;8.50;;
5060;SDS011;2549;52.128;21.068;2023-12-29T05:10:03;19.00;;;8.02;;
5060;SDS011;2549;52.128;21.068;2023-12-29T05:12:30;13.38;;;8.20;;
5060;SDS011;2549;52.128;21.068;2023-12-29T05:14:57;14.98;;;8.35;;
5060;SDS011;2549;52.128;21.068;2023-12-29T05:17:24;12.98;;;8.00;;
5060;SDS011;2549;52.128;21.068;2023-12-29T05:19:51;17.42;;;8.15;;
5060;SDS011;2549;52.128;21.068;2023-12-29T05:22:18;11.43;;;8.10;;
5060;SDS011;2549;52.128;21.068;2023-12-29T05:24:45;19.38;;;7.95;;
5060;SDS011;2549;52.128;21.068;2023-12-29T05:27:12;12.98;;;7.93;;
5060;SDS011;2549;52.128;21.068;2023-12-29T05:29:39;14.25;;;7.65;;
5060;SDS011;2549;52.128;21.068;2023-12-29T05:32:06;13.68;;;8.07;;
5060;SDS011;2549;52.128;21.068;2023-12-29T05:34:33;18.92;;;8.65;;
5060;SDS011;2549;52.128;21.068;2023-12-29T05:37:00;17.13;;;9.38;;
5060;SDS011;2549;52.128;21.068;2023-12-29T05:39:27;13.23;;;7.72;;
5060;SDS011;2549;52.128;21.068;2023-12-29T05:41:55;13.45;;;7.90;;
5060;SDS011;2549;52.128;21.068;2023-12-29T05:44:22;17.17;;;7.82;;
5060;SDS011;2549;52.128;21.068;2023-12-29T05:46:49;16.45;;;7.80;;
5060;SDS011;2549;52.128;21.068;2023-12-29T05:49:16;12.02;;;7.40;;
5060;SDS011;2549;52.128;21.068;2023-12-29T05:51:44;15.88;;;7.88;;
5060;SDS011;2549;52.128;21.068;2023-12-29T05:54:11;17.15;;;8.73;;
5060;SDS011;2549;52.128;21.068;2023-12-29T05:56:38;11.63;;;7.75;;
5060;SDS011;2549;52.128;21.068;2023-12-29T05:59:05;14.85;;;7.63;;
5060;SDS011;2549;52.128;21.068;2023-12-29T06:01:32;19.95;;;8.27;;
5060;SDS011;2549;52.128;21.068;2023-12-29T06:03:59;13.55;;;8.20;;
5060;SDS011;2549;52.128;21.068;2023-12-29T06:06:25;12.35;;;8.07;;
5060;SDS011;2549;52.128;21.068;2023-12-29T06:08:52;16.58;;;7.57;;
5060;SDS011;2549;52.128;21.068;2023-12-29T06:11:19;14.20;;;7.32;;
5060;SDS011;2549;52.128;21.068;2023-12-29T06:13:47;12.57;;;7.60;;
5060;SDS011;2549;52.128;21.068;2023-12-29T06:16:17;12.23;;;7.35;;
5060;SDS011;2549;52.128;21.068;2023-12-29T06:18:45;14.10;;;7.10;;
5060;SDS011;2549;52.128;21.068;2023-12-29T06:21:13;10.70;;;6.68;;
5060;SDS011;2549;52.128;21.068;2023-12-29T06:23:40;14.40;;;7.82;;
5060;SDS011;2549;52.128;21.068;2023-12-29T06:26:13;12.13;;;7.38;;
5060;SDS011;2549;52.128;21.068;2023-12-29T06:28:41;15.57;;;6.68;;
5060;SDS011;2549;52.128;21.068;2023-12-29T06:31:08;18.35;;;8.50;;
5060;SDS011;2549;52.128;21.068;2023-12-29T06:33:35;15.50;;;7.15;;
5060;SDS011;2549;52.128;21.068;2023-12-29T06:36:02;13.02;;;8.18;;
5060;SDS011;2549;52.128;21.068;2023-12-29T06:38:29;12.50;;;6.75;;
5060;SDS011;2549;52.128;21.068;2023-12-29T06:40:56;11.10;;;6.38;;
5060;SDS011;2549;52.128;21.068;2023-12-29T06:43:23;14.27;;;8.30;;
5060;SDS011;2549;52.128;21.068;2023-12-29T06:45:50;13.95;;;7.70;;
5060;SDS011;2549;52.128;21.068;2023-12-29T06:48:16;15.93;;;7.35;;
5060;SDS011;2549;52.128;21.068;2023-12-29T06:50:46;12.75;;;7.15;;
5060;SDS011;2549;52.128;21.068;2023-12-29T06:53:13;14.63;;;8.10;;
5060;SDS011;2549;52.128;21.068;2023-12-29T06:55:40;11.48;;;6.35;;
5060;SDS011;2549;52.128;21.068;2023-12-29T06:58:08;12.05;;;7.10;;
5060;SDS011;2549;52.128;21.068;2023-12-29T07:00:34;9.25;;;7.05;;
5060;SDS011;2549;52.128;21.068;2023-12-29T07:03:02;12.00;;;7.28;;
5060;SDS011;2549;52.128;21.068;2023-12-29T07:05:29;15.65;;;7.43;;
5060;SDS011;2549;52.128;21.068;2023-12-29T07:07:56;12.65;;;7.60;;
5060;SDS011;2549;52.128;21.068;2023-12-29T07:10:23;12.48;;;7.70;;
5060;SDS011;2549;52.128;21.068;2023-12-29T07:12:50;13.73;;;7.72;;
5060;SDS011;2549;52.128;21.068;2023-12-29T07:15:17;9.82;;;7.32;;
5060;SDS011;2549;52.128;21.068;2023-12-29T07:17:44;17.95;;;8.48;;
5060;SDS011;2549;52.128;21.068;2023-12-29T07:20:11;14.40;;;7.72;;
5060;SDS011;2549;52.128;21.068;2023-12-29T07:22:38;10.70;;;7.03;;
5060;SDS011;2549;52.128;21.068;2023-12-29T07:25:05;11.32;;;7.95;;
5060;SDS011;2549;52.128;21.068;2023-12-29T07:27:32;14.88;;;7.15;;
5060;SDS011;2549;52.128;21.068;2023-12-29T07:29:58;12.95;;;7.53;;
5060;SDS011;2549;52.128;21.068;2023-12-29T07:32:25;16.35;;;8.45;;
5060;SDS011;2549;52.128;21.068;2023-12-29T07:34:53;15.63;;;7.97;;
5060;SDS011;2549;52.128;21.068;2023-12-29T07:37:20;12.18;;;7.40;;
5060;SDS011;2549;52.128;21.068;2023-12-29T07:39:47;15.60;;;7.90;;
5060;SDS011;2549;52.128;21.068;2023-12-29T07:42:14;13.00;;;7.95;;
5060;SDS011;2549;52.128;21.068;2023-12-29T07:44:43;14.57;;;7.68;;
5060;SDS011;2549;52.128;21.068;2023-12-29T07:47:10;13.73;;;7.25;;
5060;SDS011;2549;52.128;21.068;2023-12-29T07:49:38;14.50;;;8.05;;
5060;SDS011;2549;52.128;21.068;2023-12-29T07:52:05;10.50;;;6.55;;
5060;SDS011;2549;52.128;21.068;2023-12-29T07:54:32;12.32;;;7.10;;
5060;SDS011;2549;52.128;21.068;2023-12-29T07:56:58;12.65;;;6.32;;
5060;SDS011;2549;52.128;21.068;2023-12-29T07:59:25;15.57;;;7.25;;
5060;SDS011;2549;52.128;21.068;2023-12-29T08:01:53;13.27;;;7.30;;
5060;SDS011;2549;52.128;21.068;2023-12-29T08:04:19;11.98;;;6.95;;
5060;SDS011;2549;52.128;21.068;2023-12-29T08:06:46;15.18;;;6.45;;
5060;SDS011;2549;52.128;21.068;2023-12-29T08:09:13;14.15;;;7.28;;
5060;SDS011;2549;52.128;21.068;2023-12-29T08:11:40;19.70;;;6.85;;
5060;SDS011;2549;52.128;21.068;2023-12-29T08:14:09;9.48;;;6.65;;
5060;SDS011;2549;52.128;21.068;2023-12-29T08:16:38;12.20;;;6.45;;
5060;SDS011;2549;52.128;21.068;2023-12-29T08:19:06;16.17;;;7.63;;
5060;SDS011;2549;52.128;21.068;2023-12-29T08:21:37;10.82;;;6.85;;
5060;SDS011;2549;52.128;21.068;2023-12-29T08:24:04;11.45;;;6.53;;
5060;SDS011;2549;52.128;21.068;2023-12-29T08:26:31;11.40;;;6.75;;
5060;SDS011;2549;52.128;21.068;2023-12-29T08:28:57;9.23;;;6.38;;
5060;SDS011;2549;52.128;21.068;2023-12-29T08:31:24;13.05;;;6.95;;
5060;SDS011;2549;52.128;21.068;2023-12-29T08:33:52;10.90;;;6.22;;
5060;SDS011;2549;52.128;21.068;2023-12-29T08:36:20;10.48;;;6.18;;
5060;SDS011;2549;52.128;21.068;2023-12-29T08:38:47;8.93;;;6.22;;
5060;SDS011;2549;52.128;21.068;2023-12-29T08:41:14;8.43;;;5.40;;
5060;SDS011;2549;52.128;21.068;2023-12-29T08:43:41;11.27;;;5.72;;
5060;SDS011;2549;52.128;21.068;2023-12-29T08:46:08;6.78;;;5.43;;
5060;SDS011;2549;52.128;21.068;2023-12-29T08:48:35;8.25;;;5.25;;
5060;SDS011;2549;52.128;21.068;2023-12-29T08:51:02;8.98;;;5.30;;
5060;SDS011;2549;52.128;21.068;2023-12-29T08:53:30;7.55;;;6.10;;
5060;SDS011;2549;52.128;21.068;2023-12-29T08:56:00;8.57;;;5.68;;
5060;SDS011;2549;52.128;21.068;2023-12-29T08:58:28;7.15;;;5.07;;
5060;SDS011;2549;52.128;21.068;2023-12-29T09:00:56;10.27;;;5.90;;
5060;SDS011;2549;52.128;21.068;2023-12-29T09:03:23;7.65;;;4.85;;
5060;SDS011;2549;52.128;21.068;2023-12-29T09:05:50;8.30;;;5.03;;
5060;SDS011;2549;52.128;21.068;2023-12-29T09:08:17;10.52;;;5.70;;
5060;SDS011;2549;52.128;21.068;2023-12-29T09:10:44;7.15;;;5.13;;
5060;SDS011;2549;52.128;21.068;2023-12-29T09:13:11;7.88;;;5.03;;
5060;SDS011;2549;52.128;21.068;2023-12-29T09:15:38;8.02;;;5.05;;
5060;SDS011;2549;52.128;21.068;2023-12-29T09:18:05;9.60;;;5.90;;
5060;SDS011;2549;52.128;21.068;2023-12-29T09:20:33;9.35;;;5.47;;
5060;SDS011;2549;52.128;21.068;2023-12-29T09:23:00;9.02;;;4.95;;
5060;SDS011;2549;52.128;21.068;2023-12-29T09:25:27;7.40;;;5.05;;
5060;SDS011;2549;52.128;21.068;2023-12-29T09:27:54;8.90;;;5.40;;
5060;SDS011;2549;52.128;21.068;2023-12-29T09:30:21;5.95;;;5.00;;
5060;SDS011;2549;52.128;21.068;2023-12-29T09:32:48;11.43;;;5.93;;
5060;SDS011;2549;52.128;21.068;2023-12-29T09:35:15;12.18;;;4.93;;
5060;SDS011;2549;52.128;21.068;2023-12-29T09:37:43;7.40;;;5.13;;
5060;SDS011;2549;52.128;21.068;2023-12-29T09:40:10;9.80;;;4.70;;
5060;SDS011;2549;52.128;21.068;2023-12-29T09:42:38;8.45;;;5.03;;
5060;SDS011;2549;52.128;21.068;2023-12-29T09:45:07;7.82;;;4.80;;
5060;SDS011;2549;52.128;21.068;2023-12-29T09:47:38;9.85;;;4.88;;
5060;SDS011;2549;52.128;21.068;2023-12-29T09:50:10;9.88;;;5.85;;
5060;SDS011;2549;52.128;21.068;2023-12-29T09:52:39;6.78;;;5.20;;
5060;SDS011;2549;52.128;21.068;2023-12-29T09:55:10;7.65;;;5.50;;
5060;SDS011;2549;52.128;21.068;2023-12-29T09:57:38;7.78;;;4.85;;
5060;SDS011;2549;52.128;21.068;2023-12-29T10:00:05;5.20;;;4.70;;
5060;SDS011;2549;52.128;21.068;2023-12-29T10:02:36;6.82;;;4.93;;
5060;SDS011;2549;52.128;21.068;2023-12-29T10:05:04;9.43;;;5.60;;
5060;SDS011;2549;52.128;21.068;2023-12-29T10:07:36;6.57;;;5.00;;
5060;SDS011;2549;52.128;21.068;2023-12-29T10:10:05;7.47;;;5.00;;
5060;SDS011;2549;52.128;21.068;2023-12-29T10:12:33;7.57;;;5.05;;
5060;SDS011;2549;52.128;21.068;2023-12-29T10:15:06;6.27;;;4.60;;
5060;SDS011;2549;52.128;21.068;2023-12-29T10:17:43;6.93;;;4.80;;
5060;SDS011;2549;52.128;21.068;2023-12-29T10:23:27;6.28;;;4.55;;
5060;SDS011;2549;52.128;21.068;2023-12-29T10:26:01;9.50;;;4.60;;
5060;SDS011;2549;52.128;21.068;2023-12-29T10:28:29;7.87;;;5.10;;
5060;SDS011;2549;52.128;21.068;2023-12-29T10:30:56;9.63;;;4.85;;
5060;SDS011;2549;52.128;21.068;2023-12-29T10:33:24;8.05;;;4.43;;
5060;SDS011;2549;52.128;21.068;2023-12-29T10:35:58;8.17;;;4.50;;
5060;SDS011;2549;52.128;21.068;2023-12-29T10:38:30;8.48;;;4.43;;
5060;SDS011;2549;52.128;21.068;2023-12-29T10:41:16;8.05;;;5.32;;
5060;SDS011;2549;52.128;21.068;2023-12-29T10:43:45;6.93;;;4.38;;
5060;SDS011;2549;52.128;21.068;2023-12-29T10:46:19;6.30;;;4.65;;
5060;SDS011;2549;52.128;21.068;2023-12-29T10:48:47;8.57;;;4.30;;
5060;SDS011;2549;52.128;21.068;2023-12-29T10:51:15;6.27;;;4.30;;
5060;SDS011;2549;52.128;21.068;2023-12-29T10:53:42;3.88;;;3.47;;
5060;SDS011;2549;52.128;21.068;2023-12-29T10:56:21;3.60;;;3.25;;
5060;SDS011;2549;52.128;21.068;2023-12-29T10:59:02;4.30;;;3.20;;
5060;SDS011;2549;52.128;21.068;2023-12-29T11:01:30;4.38;;;3.33;;
5060;SDS011;2549;52.128;21.068;2023-12-29T11:04:03;4.53;;;3.13;;
5060;SDS011;2549;52.128;21.068;2023-12-29T11:06:49;6.50;;;3.07;;
5060;SDS011;2549;52.128;21.068;2023-12-29T11:09:30;3.73;;;2.60;;
5060;SDS011;2549;52.128;21.068;2023-12-29T11:12:00;4.03;;;2.90;;
5060;SDS011;2549;52.128;21.068;2023-12-29T11:14:27;3.22;;;2.85;;
5060;SDS011;2549;52.128;21.068;2023-12-29T11:16:55;2.93;;;2.40;;
5060;SDS011;2549;52.128;21.068;2023-12-29T11:19:23;4.60;;;3.00;;
5060;SDS011;2549;52.128;21.068;2023-12-29T11:21:51;4.37;;;2.63;;
5060;SDS011;2549;52.128;21.068;2023-12-29T11:24:21;4.77;;;2.70;;
5060;SDS011;2549;52.128;21.068;2023-12-29T11:27:00;2.33;;;2.13;;
5060;SDS011;2549;52.128;21.068;2023-12-29T11:29:29;3.90;;;2.70;;
5060;SDS011;2549;52.128;21.068;2023-12-29T11:31:57;3.17;;;2.03;;
5060;SDS011;2549;52.128;21.068;2023-12-29T11:34:30;2.80;;;2.60;;
5060;SDS011;2549;52.128;21.068;2023-12-29T11:40:16;3.37;;;2.20;;
5060;SDS011;2549;52.128;21.068;2023-12-29T11:42:52;2.87;;;2.53;;
5060;SDS011;2549;52.128;21.068;2023-12-29T11:48:02;3.07;;;2.17;;
5060;SDS011;2549;52.128;21.068;2023-12-29T11:50:31;2.80;;;2.60;;
5060;SDS011;2549;52.128;21.068;2023-12-29T11:53:04;3.13;;;2.53;;
5060;SDS011;2549;52.128;21.068;2023-12-29T11:55:36;4.30;;;2.57;;
5060;SDS011;2549;52.128;21.068;2023-12-29T11:58:04;4.60;;;2.93;;
5060;SDS011;2549;52.128;21.068;2023-12-29T12:00:49;2.60;;;2.40;;
5060;SDS011;2549;52.128;21.068;2023-12-29T12:03:17;5.40;;;2.77;;
5060;SDS011;2549;52.128;21.068;2023-12-29T12:05:55;2.50;;;2.30;;
5060;SDS011;2549;52.128;21.068;2023-12-29T12:08:34;3.70;;;2.73;;
5060;SDS011;2549;52.128;21.068;2023-12-29T12:13:56;2.73;;;2.30;;
5060;SDS011;2549;52.128;21.068;2023-12-29T12:19:09;2.30;;;2.10;;
5060;SDS011;2549;52.128;21.068;2023-12-29T12:21:39;4.97;;;2.50;;
5060;SDS011;2549;52.128;21.068;2023-12-29T12:24:07;3.87;;;2.63;;
5060;SDS011;2549;52.128;21.068;2023-12-29T12:26:34;4.07;;;3.00;;
5060;SDS011;2549;52.128;21.068;2023-12-29T12:29:01;4.77;;;2.40;;
5060;SDS011;2549;52.128;21.068;2023-12-29T12:31:29;4.70;;;2.53;;
5060;SDS011;2549;52.128;21.068;2023-12-29T12:33:56;5.10;;;2.50;;
5060;SDS011;2549;52.128;21.068;2023-12-29T12:36:24;4.20;;;2.57;;
5060;SDS011;2549;52.128;21.068;2023-12-29T12:38:53;2.50;;;2.30;;
5060;SDS011;2549;52.128;21.068;2023-12-29T12:41:21;3.00;;;2.70;;
5060;SDS011;2549;52.128;21.068;2023-12-29T12:46:43;2.30;;;2.10;;
5060;SDS011;2549;52.128;21.068;2023-12-29T12:49:11;4.60;;;2.97;;
5060;SDS011;2549;52.128;21.068;2023-12-29T12:51:38;2.87;;;2.30;;
5060;SDS011;2549;52.128;21.068;2023-12-29T12:54:06;4.23;;;2.40;;
5060;SDS011;2549;52.128;21.068;2023-12-29T12:56:36;5.67;;;3.40;;
5060;SDS011;2549;52.128;21.068;2023-12-29T12:59:03;8.20;;;2.50;;
5060;SDS011;2549;52.128;21.068;2023-12-29T13:01:34;6.80;;;2.70;;
5060;SDS011;2549;52.128;21.068;2023-12-29T13:04:03;7.10;;;2.23;;
5060;SDS011;2549;52.128;21.068;2023-12-29T13:06:32;3.40;;;2.33;;
5060;SDS011;2549;52.128;21.068;2023-12-29T13:09:00;2.20;;;2.00;;
5060;SDS011;2549;52.128;21.068;2023-12-29T13:11:33;2.50;;;2.37;;
5060;SDS011;2549;52.128;21.068;2023-12-29T13:14:00;4.30;;;3.17;;
5060;SDS011;2549;52.128;21.068;2023-12-29T13:16:31;5.50;;;3.10;;
5060;SDS011;2549;52.128;21.068;2023-12-29T13:21:50;4.70;;;2.87;;
5060;SDS011;2549;52.128;21.068;2023-12-29T13:24:24;9.47;;;3.40;;
5060;SDS011;2549;52.128;21.068;2023-12-29T13:26:54;4.80;;;3.30;;
5060;SDS011;2549;52.128;21.068;2023-12-29T13:29:23;4.90;;;3.13;;
5060;SDS011;2549;52.128;21.068;2023-12-29T13:31:52;2.73;;;2.40;;
5060;SDS011;2549;52.128;21.068;2023-12-29T13:34:28;5.07;;;2.77;;
5060;SDS011;2549;52.128;21.068;2023-12-29T13:37:02;4.10;;;3.40;;
5060;SDS011;2549;52.128;21.068;2023-12-29T13:39:42;5.63;;;3.50;;
5060;SDS011;2549;52.128;21.068;2023-12-29T13:42:20;5.33;;;2.90;;
5060;SDS011;2549;52.128;21.068;2023-12-29T13:44:50;3.47;;;2.83;;
5060;SDS011;2549;52.128;21.068;2023-12-29T13:47:18;3.43;;;3.17;;
5060;SDS011;2549;52.128;21.068;2023-12-29T13:49:47;4.43;;;2.40;;
5060;SDS011;2549;52.128;21.068;2023-12-29T13:52:16;4.07;;;2.90;;
5060;SDS011;2549;52.128;21.068;2023-12-29T13:54:45;2.57;;;2.37;;
5060;SDS011;2549;52.128;21.068;2023-12-29T13:57:12;5.40;;;2.97;;
5060;SDS011;2549;52.128;21.068;2023-12-29T13:59:39;2.37;;;2.20;;
5060;SDS011;2549;52.128;21.068;2023-12-29T14:02:19;6.80;;;2.73;;
5060;SDS011;2549;52.128;21.068;2023-12-29T14:07:52;6.77;;;2.40;;
5060;SDS011;2549;52.128;21.068;2023-12-29T14:10:19;6.13;;;2.90;;
5060;SDS011;2549;52.128;21.068;2023-12-29T14:12:47;8.80;;;2.23;;
5060;SDS011;2549;52.128;21.068;2023-12-29T14:15:14;4.07;;;2.97;;
5060;SDS011;2549;52.128;21.068;2023-12-29T14:17:41;7.20;;;3.83;;
5060;SDS011;2549;52.128;21.068;2023-12-29T14:20:09;2.90;;;2.50;;
5060;SDS011;2549;52.128;21.068;2023-12-29T14:22:36;8.23;;;3.80;;
5060;SDS011;2549;52.128;21.068;2023-12-29T14:25:06;2.70;;;2.47;;
5060;SDS011;2549;52.128;21.068;2023-12-29T14:27:34;4.73;;;3.00;;
5060;SDS011;2549;52.128;21.068;2023-12-29T14:30:01;5.33;;;2.73;;
5060;SDS011;2549;52.128;21.068;2023-12-29T14:32:28;4.30;;;2.93;;
5060;SDS011;2549;52.128;21.068;2023-12-29T14:34:56;5.10;;;2.93;;
5060;SDS011;2549;52.128;21.068;2023-12-29T14:37:23;4.17;;;2.50;;
5060;SDS011;2549;52.128;21.068;2023-12-29T14:39:51;5.00;;;3.23;;
5060;SDS011;2549;52.128;21.068;2023-12-29T14:42:18;3.90;;;2.80;;
5060;SDS011;2549;52.128;21.068;2023-12-29T14:44:46;2.80;;;2.60;;
5060;SDS011;2549;52.128;21.068;2023-12-29T14:47:14;2.80;;;2.43;;
5060;SDS011;2549;52.128;21.068;2023-12-29T14:49:42;4.10;;;2.47;;
5060;SDS011;2549;52.128;21.068;2023-12-29T14:52:09;4.77;;;3.17;;
5060;SDS011;2549;52.128;21.068;2023-12-29T14:54:37;5.00;;;4.17;;
5060;SDS011;2549;52.128;21.068;2023-12-29T14:57:05;6.10;;;3.10;;
5060;SDS011;2549;52.128;21.068;2023-12-29T14:59:40;6.50;;;3.43;;
5060;SDS011;2549;52.128;21.068;2023-12-29T15:02:07;4.40;;;3.07;;
5060;SDS011;2549;52.128;21.068;2023-12-29T15:04:36;6.53;;;2.97;;
5060;SDS011;2549;52.128;21.068;2023-12-29T15:07:03;5.37;;;3.47;;
5060;SDS011;2549;52.128;21.068;2023-12-29T15:09:30;3.80;;;2.90;;
5060;SDS011;2549;52.128;21.068;2023-12-29T15:11:57;5.30;;;3.53;;
5060;SDS011;2549;52.128;21.068;2023-12-29T15:14:24;4.43;;;3.03;;
5060;SDS011;2549;52.128;21.068;2023-12-29T15:16:51;6.63;;;3.33;;
5060;SDS011;2549;52.128;21.068;2023-12-29T15:19:19;3.57;;;2.60;;
5060;SDS011;2549;52.128;21.068;2023-12-29T15:21:47;9.47;;;3.90;;
5060;SDS011;2549;52.128;21.068;2023-12-29T15:24:14;7.57;;;3.00;;
5060;SDS011;2549;52.128;21.068;2023-12-29T15:26:41;8.30;;;2.80;;
5060;SDS011;2549;52.128;21.068;2023-12-29T15:29:08;5.80;;;3.27;;